sensor_id;sensor_type;location;lat;lon;timestamp;temperature;humidity
13598;DHT22;38563;54.258;12.574;2022-10-22T00:01:25;10.00;99.90
13598;DHT22;38563;54.258;12.574;2022-10-22T00:03:52;10.20;99.90
13598;DHT22;38563;54.258;12.574;2022-10-22T00:06:19;10.20;99.90
13598;DHT22;38563;54.258;12.574;2022-10-22T00:08:46;10.40;99.90
13598;DHT22;38563;54.258;12.574;2022-10-22T00:11:14;10.50;99.90
13598;DHT22;38563;54.258;12.574;2022-10-22T00:13:42;10.50;99.90
13598;DHT22;38563;54.258;12.574;2022-10-22T00:16:09;10.60;99.90
13598;DHT22;38563;54.258;12.574;2022-10-22T00:18:36;10.70;99.90
13598;DHT22;38563;54.258;12.574;2022-10-22T00:21:03;10.70;99.90
13598;DHT22;38563;54.258;12.574;2022-10-22T00:23:30;10.70;99.90
13598;DHT22;38563;54.258;12.574;2022-10-22T00:25:57;10.70;99.90
13598;DHT22;38563;54.258;12.574;2022-10-22T00:28:24;10.70;99.90
13598;DHT22;38563;54.258;12.574;2022-10-22T00:30:55;10.70;99.90
13598;DHT22;38563;54.258;12.574;2022-10-22T00:33:22;10.60;99.90
13598;DHT22;38563;54.258;12.574;2022-10-22T00:35:49;10.60;99.90
13598;DHT22;38563;54.258;12.574;2022-10-22T00:38:16;10.50;99.90
13598;DHT22;38563;54.258;12.574;2022-10-22T00:40:43;10.40;99.90
13598;DHT22;38563;54.258;12.574;2022-10-22T00:43:11;10.30;99.90
13598;DHT22;38563;54.258;12.574;2022-10-22T00:45:38;10.20;99.90
13598;DHT22;38563;54.258;12.574;2022-10-22T00:48:08;10.30;99.90
13598;DHT22;38563;54.258;12.574;2022-10-22T00:50:39;10.30;99.90
13598;DHT22;38563;54.258;12.574;2022-10-22T00:53:09;10.30;99.90
13598;DHT22;38563;54.258;12.574;2022-10-22T00:55:38;10.50;99.90
13598;DHT22;38563;54.258;12.574;2022-10-22T00:58:05;10.80;99.90
13598;DHT22;38563;54.258;12.574;2022-10-22T01:00:32;11.00;99.90
13598;DHT22;38563;54.258;12.574;2022-10-22T01:02:59;11.20;99.90
13598;DHT22;38563;54.258;12.574;2022-10-22T01:05:28;11.30;99.90
13598;DHT22;38563;54.258;12.574;2022-10-22T01:07:56;11.30;99.90
13598;DHT22;38563;54.258;12.574;2022-10-22T01:10:33;11.30;99.90
13598;DHT22;38563;54.258;12.574;2022-10-22T01:13:13;11.30;99.90
13598;DHT22;38563;54.258;12.574;2022-10-22T01:15:45;11.30;99.90
13598;DHT22;38563;54.258;12.574;2022-10-22T01:18:17;11.30;99.90
13598;DHT22;38563;54.258;12.574;2022-10-22T01:21:08;11.40;99.90
13598;DHT22;38563;54.258;12.574;2022-10-22T01:23:59;11.40;99.90
13598;DHT22;38563;54.258;12.574;2022-10-22T01:26:38;11.50;99.90
13598;DHT22;38563;54.258;12.574;2022-10-22T01:29:10;11.50;99.90
13598;DHT22;38563;54.258;12.574;2022-10-22T01:31:42;11.60;99.90
13598;DHT22;38563;54.258;12.574;2022-10-22T01:34:12;11.60;99.90
13598;DHT22;38563;54.258;12.574;2022-10-22T01:36:41;11.60;99.90
13598;DHT22;38563;54.258;12.574;2022-10-22T01:39:08;11.70;99.90
13598;DHT22;38563;54.258;12.574;2022-10-22T01:41:35;11.70;99.90
13598;DHT22;38563;54.258;12.574;2022-10-22T01:44:04;11.80;99.90
13598;DHT22;38563;54.258;12.574;2022-10-22T01:46:33;11.80;99.90
13598;DHT22;38563;54.258;12.574;2022-10-22T01:49:11;11.90;99.90
13598;DHT22;38563;54.258;12.574;2022-10-22T01:51:50;11.90;99.90
13598;DHT22;38563;54.258;12.574;2022-10-22T01:54:26;11.90;99.90
13598;DHT22;38563;54.258;12.574;2022-10-22T01:57:06;11.90;99.90
13598;DHT22;38563;54.258;12.574;2022-10-22T01:59:41;12.00;99.90
13598;DHT22;38563;54.258;12.574;2022-10-22T02:02:22;12.00;99.90
13598;DHT22;38563;54.258;12.574;2022-10-22T02:04:53;12.00;99.90
13598;DHT22;38563;54.258;12.574;2022-10-22T02:07:27;12.00;99.90
13598;DHT22;38563;54.258;12.574;2022-10-22T02:09:55;12.10;99.90
13598;DHT22;38563;54.258;12.574;2022-10-22T02:12:24;12.10;99.90
13598;DHT22;38563;54.258;12.574;2022-10-22T02:14:53;12.10;99.90
13598;DHT22;38563;54.258;12.574;2022-10-22T02:17:24;12.10;99.90
13598;DHT22;38563;54.258;12.574;2022-10-22T02:19:55;12.20;99.90
13598;DHT22;38563;54.258;12.574;2022-10-22T02:22:24;12.20;99.90
13598;DHT22;38563;54.258;12.574;2022-10-22T02:24:51;12.20;99.90
13598;DHT22;38563;54.258;12.574;2022-10-22T02:27:21;12.20;99.90
13598;DHT22;38563;54.258;12.574;2022-10-22T02:29:55;12.30;99.90
13598;DHT22;38563;54.258;12.574;2022-10-22T02:32:27;12.40;99.90
13598;DHT22;38563;54.258;12.574;2022-10-22T02:34:56;12.40;99.90
13598;DHT22;38563;54.258;12.574;2022-10-22T02:37:23;12.50;99.90
13598;DHT22;38563;54.258;12.574;2022-10-22T02:39:51;12.50;99.90
13598;DHT22;38563;54.258;12.574;2022-10-22T02:42:18;12.60;99.90
13598;DHT22;38563;54.258;12.574;2022-10-22T02:44:45;12.60;99.90
13598;DHT22;38563;54.258;12.574;2022-10-22T02:47:11;12.80;99.90
13598;DHT22;38563;54.258;12.574;2022-10-22T02:49:39;12.80;99.90
13598;DHT22;38563;54.258;12.574;2022-10-22T02:52:06;12.80;99.90
13598;DHT22;38563;54.258;12.574;2022-10-22T02:54:33;12.80;99.90
13598;DHT22;38563;54.258;12.574;2022-10-22T02:56:59;12.80;99.90
13598;DHT22;38563;54.258;12.574;2022-10-22T02:59:26;12.80;99.90
13598;DHT22;38563;54.258;12.574;2022-10-22T03:01:53;12.80;99.90
13598;DHT22;38563;54.258;12.574;2022-10-22T03:04:20;12.80;99.90
13598;DHT22;38563;54.258;12.574;2022-10-22T03:06:48;12.80;99.90
13598;DHT22;38563;54.258;12.574;2022-10-22T03:09:15;12.80;99.90
13598;DHT22;38563;54.258;12.574;2022-10-22T03:11:41;12.90;99.90
13598;DHT22;38563;54.258;12.574;2022-10-22T03:14:08;13.00;99.90
13598;DHT22;38563;54.258;12.574;2022-10-22T03:16:35;13.00;99.90
13598;DHT22;38563;54.258;12.574;2022-10-22T03:19:02;13.10;99.90
13598;DHT22;38563;54.258;12.574;2022-10-22T03:21:32;13.10;99.90
13598;DHT22;38563;54.258;12.574;2022-10-22T03:24:03;13.10;99.90
13598;DHT22;38563;54.258;12.574;2022-10-22T03:26:31;13.20;99.90
13598;DHT22;38563;54.258;12.574;2022-10-22T03:28:59;13.20;99.90
13598;DHT22;38563;54.258;12.574;2022-10-22T03:31:26;13.20;99.90
13598;DHT22;38563;54.258;12.574;2022-10-22T03:33:53;13.20;99.90
13598;DHT22;38563;54.258;12.574;2022-10-22T03:36:20;13.20;99.90
13598;DHT22;38563;54.258;12.574;2022-10-22T03:38:46;13.10;99.90
13598;DHT22;38563;54.258;12.574;2022-10-22T03:41:14;13.20;99.90
13598;DHT22;38563;54.258;12.574;2022-10-22T03:43:41;13.20;99.90
13598;DHT22;38563;54.258;12.574;2022-10-22T03:46:13;13.20;99.90
13598;DHT22;38563;54.258;12.574;2022-10-22T03:48:40;13.20;99.90
13598;DHT22;38563;54.258;12.574;2022-10-22T03:51:07;13.30;99.90
13598;DHT22;38563;54.258;12.574;2022-10-22T03:53:34;13.30;99.90
13598;DHT22;38563;54.258;12.574;2022-10-22T03:56:01;13.30;99.90
13598;DHT22;38563;54.258;12.574;2022-10-22T03:58:29;13.30;99.90
13598;DHT22;38563;54.258;12.574;2022-10-22T04:00:55;13.40;99.90
13598;DHT22;38563;54.258;12.574;2022-10-22T04:03:22;13.40;99.90
13598;DHT22;38563;54.258;12.574;2022-10-22T04:05:48;13.40;99.90
13598;DHT22;38563;54.258;12.574;2022-10-22T04:08:15;13.40;99.90
13598;DHT22;38563;54.258;12.574;2022-10-22T04:10:42;13.40;99.90
13598;DHT22;38563;54.258;12.574;2022-10-22T04:13:15;13.40;99.90
13598;DHT22;38563;54.258;12.574;2022-10-22T04:15:43;13.40;99.90
13598;DHT22;38563;54.258;12.574;2022-10-22T04:18:10;13.40;99.90
13598;DHT22;38563;54.258;12.574;2022-10-22T04:20:37;13.40;99.90
13598;DHT22;38563;54.258;12.574;2022-10-22T04:23:04;13.40;99.90
13598;DHT22;38563;54.258;12.574;2022-10-22T04:25:30;13.50;99.90
13598;DHT22;38563;54.258;12.574;2022-10-22T04:27:57;13.50;99.90
13598;DHT22;38563;54.258;12.574;2022-10-22T04:30:24;13.40;99.90
13598;DHT22;38563;54.258;12.574;2022-10-22T04:32:52;13.40;99.90
13598;DHT22;38563;54.258;12.574;2022-10-22T04:35:18;13.40;99.90
13598;DHT22;38563;54.258;12.574;2022-10-22T04:37:45;13.50;99.90
13598;DHT22;38563;54.258;12.574;2022-10-22T04:40:12;13.50;99.90
13598;DHT22;38563;54.258;12.574;2022-10-22T04:42:38;13.50;99.90
13598;DHT22;38563;54.258;12.574;2022-10-22T04:45:06;13.50;99.90
13598;DHT22;38563;54.258;12.574;2022-10-22T04:47:33;13.50;99.90
13598;DHT22;38563;54.258;12.574;2022-10-22T04:50:01;13.50;99.90
13598;DHT22;38563;54.258;12.574;2022-10-22T04:52:27;13.50;99.90
13598;DHT22;38563;54.258;12.574;2022-10-22T04:54:54;13.50;99.90
13598;DHT22;38563;54.258;12.574;2022-10-22T04:57:21;13.50;99.90
13598;DHT22;38563;54.258;12.574;2022-10-22T04:59:48;13.50;99.90
13598;DHT22;38563;54.258;12.574;2022-10-22T05:02:14;13.50;99.90
13598;DHT22;38563;54.258;12.574;2022-10-22T05:04:43;13.50;99.90
13598;DHT22;38563;54.258;12.574;2022-10-22T05:07:11;13.50;99.90
13598;DHT22;38563;54.258;12.574;2022-10-22T05:09:37;13.60;99.90
13598;DHT22;38563;54.258;12.574;2022-10-22T05:12:04;13.60;99.90
13598;DHT22;38563;54.258;12.574;2022-10-22T05:14:31;13.60;99.90
13598;DHT22;38563;54.258;12.574;2022-10-22T05:16:58;13.60;99.90
13598;DHT22;38563;54.258;12.574;2022-10-22T05:19:27;13.60;99.90
13598;DHT22;38563;54.258;12.574;2022-10-22T05:21:57;13.60;99.90
13598;DHT22;38563;54.258;12.574;2022-10-22T05:24:26;13.60;99.90
13598;DHT22;38563;54.258;12.574;2022-10-22T05:26:54;13.60;99.90
13598;DHT22;38563;54.258;12.574;2022-10-22T05:29:22;13.60;99.90
13598;DHT22;38563;54.258;12.574;2022-10-22T05:31:49;13.50;99.90
13598;DHT22;38563;54.258;12.574;2022-10-22T05:34:16;13.60;99.90
13598;DHT22;38563;54.258;12.574;2022-10-22T05:36:43;13.50;99.90
13598;DHT22;38563;54.258;12.574;2022-10-22T05:39:10;13.50;99.90
13598;DHT22;38563;54.258;12.574;2022-10-22T05:41:38;13.50;99.90
13598;DHT22;38563;54.258;12.574;2022-10-22T05:44:05;13.50;99.90
13598;DHT22;38563;54.258;12.574;2022-10-22T05:46:33;13.50;99.90
13598;DHT22;38563;54.258;12.574;2022-10-22T05:49:02;13.50;99.90
13598;DHT22;38563;54.258;12.574;2022-10-22T05:51:31;13.50;99.90
13598;DHT22;38563;54.258;12.574;2022-10-22T05:54:00;13.50;99.90
13598;DHT22;38563;54.258;12.574;2022-10-22T05:56:28;13.50;99.90
13598;DHT22;38563;54.258;12.574;2022-10-22T05:58:58;13.40;99.90
13598;DHT22;38563;54.258;12.574;2022-10-22T06:01:26;13.40;99.90
13598;DHT22;38563;54.258;12.574;2022-10-22T06:03:54;13.40;99.90
13598;DHT22;38563;54.258;12.574;2022-10-22T06:06:25;13.40;99.90
13598;DHT22;38563;54.258;12.574;2022-10-22T06:08:54;13.40;99.90
13598;DHT22;38563;54.258;12.574;2022-10-22T06:11:22;13.50;99.90
13598;DHT22;38563;54.258;12.574;2022-10-22T06:13:49;13.40;99.90
13598;DHT22;38563;54.258;12.574;2022-10-22T06:16:18;13.50;99.90
13598;DHT22;38563;54.258;12.574;2022-10-22T06:18:44;13.40;99.90
13598;DHT22;38563;54.258;12.574;2022-10-22T06:21:13;13.40;99.90
13598;DHT22;38563;54.258;12.574;2022-10-22T06:23:41;13.50;99.90
13598;DHT22;38563;54.258;12.574;2022-10-22T06:26:08;13.50;99.90
13598;DHT22;38563;54.258;12.574;2022-10-22T06:28:36;13.50;99.90
13598;DHT22;38563;54.258;12.574;2022-10-22T06:31:03;13.50;99.90
13598;DHT22;38563;54.258;12.574;2022-10-22T06:33:32;13.50;99.90
13598;DHT22;38563;54.258;12.574;2022-10-22T06:36:05;13.60;99.90
13598;DHT22;38563;54.258;12.574;2022-10-22T06:38:32;13.60;99.90
13598;DHT22;38563;54.258;12.574;2022-10-22T06:41:02;13.60;99.90
13598;DHT22;38563;54.258;12.574;2022-10-22T06:43:29;13.70;99.90
13598;DHT22;38563;54.258;12.574;2022-10-22T06:45:58;13.70;99.90
13598;DHT22;38563;54.258;12.574;2022-10-22T06:48:25;13.70;99.90
13598;DHT22;38563;54.258;12.574;2022-10-22T06:50:53;13.80;99.90
13598;DHT22;38563;54.258;12.574;2022-10-22T06:53:20;13.80;99.90
13598;DHT22;38563;54.258;12.574;2022-10-22T06:55:46;13.90;99.90
13598;DHT22;38563;54.258;12.574;2022-10-22T06:58:13;13.90;99.90
13598;DHT22;38563;54.258;12.574;2022-10-22T07:00:40;13.90;99.90
13598;DHT22;38563;54.258;12.574;2022-10-22T07:03:08;13.90;99.90
13598;DHT22;38563;54.258;12.574;2022-10-22T07:05:37;14.00;99.90
13598;DHT22;38563;54.258;12.574;2022-10-22T07:08:05;14.00;99.90
13598;DHT22;38563;54.258;12.574;2022-10-22T07:10:32;14.00;99.90
13598;DHT22;38563;54.258;12.574;2022-10-22T07:12:58;14.10;99.90
13598;DHT22;38563;54.258;12.574;2022-10-22T07:15:25;14.10;99.90
13598;DHT22;38563;54.258;12.574;2022-10-22T07:17:52;14.20;99.90
13598;DHT22;38563;54.258;12.574;2022-10-22T07:20:18;14.20;99.90
13598;DHT22;38563;54.258;12.574;2022-10-22T07:22:46;14.30;99.90
13598;DHT22;38563;54.258;12.574;2022-10-22T07:25:14;14.30;99.90
13598;DHT22;38563;54.258;12.574;2022-10-22T07:27:41;14.30;99.90
13598;DHT22;38563;54.258;12.574;2022-10-22T07:30:08;14.30;99.90
13598;DHT22;38563;54.258;12.574;2022-10-22T07:32:35;14.40;99.90
13598;DHT22;38563;54.258;12.574;2022-10-22T07:35:02;14.40;99.90
13598;DHT22;38563;54.258;12.574;2022-10-22T07:37:29;14.40;99.90
13598;DHT22;38563;54.258;12.574;2022-10-22T07:39:55;14.50;99.90
13598;DHT22;38563;54.258;12.574;2022-10-22T07:42:23;14.50;99.90
13598;DHT22;38563;54.258;12.574;2022-10-22T07:44:50;14.40;99.90
13598;DHT22;38563;54.258;12.574;2022-10-22T07:47:17;14.50;99.90
13598;DHT22;38563;54.258;12.574;2022-10-22T07:49:43;14.50;99.90
13598;DHT22;38563;54.258;12.574;2022-10-22T07:52:10;14.50;99.90
13598;DHT22;38563;54.258;12.574;2022-10-22T07:54:37;14.50;99.90
13598;DHT22;38563;54.258;12.574;2022-10-22T07:57:04;14.50;99.90
13598;DHT22;38563;54.258;12.574;2022-10-22T07:59:32;14.60;99.90
13598;DHT22;38563;54.258;12.574;2022-10-22T08:01:58;14.60;99.90
13598;DHT22;38563;54.258;12.574;2022-10-22T08:04:25;14.70;99.90
13598;DHT22;38563;54.258;12.574;2022-10-22T08:06:52;14.70;99.90
13598;DHT22;38563;54.258;12.574;2022-10-22T08:09:18;14.80;99.90
13598;DHT22;38563;54.258;12.574;2022-10-22T08:11:45;14.90;99.90
13598;DHT22;38563;54.258;12.574;2022-10-22T08:14:12;14.90;99.90
13598;DHT22;38563;54.258;12.574;2022-10-22T08:16:40;14.90;99.90
13598;DHT22;38563;54.258;12.574;2022-10-22T08:19:06;15.00;99.90
13598;DHT22;38563;54.258;12.574;2022-10-22T08:21:33;15.00;99.90
13598;DHT22;38563;54.258;12.574;2022-10-22T08:24:00;15.00;99.90
13598;DHT22;38563;54.258;12.574;2022-10-22T08:26:27;15.00;99.90
13598;DHT22;38563;54.258;12.574;2022-10-22T08:28:53;15.00;99.90
13598;DHT22;38563;54.258;12.574;2022-10-22T08:31:20;15.00;99.90
13598;DHT22;38563;54.258;12.574;2022-10-22T08:33:48;15.00;99.90
13598;DHT22;38563;54.258;12.574;2022-10-22T08:36:15;15.00;99.90
13598;DHT22;38563;54.258;12.574;2022-10-22T08:38:41;15.00;99.90
13598;DHT22;38563;54.258;12.574;2022-10-22T08:41:11;15.00;99.90
13598;DHT22;38563;54.258;12.574;2022-10-22T08:43:48;14.90;99.90
13598;DHT22;38563;54.258;12.574;2022-10-22T08:46:57;15.00;99.90
13598;DHT22;38563;54.258;12.574;2022-10-22T08:49:31;15.00;99.90
13598;DHT22;38563;54.258;12.574;2022-10-22T08:51:59;15.00;99.90
13598;DHT22;38563;54.258;12.574;2022-10-22T08:54:32;15.00;99.90
13598;DHT22;38563;54.258;12.574;2022-10-22T08:57:15;15.00;99.90
13598;DHT22;38563;54.258;12.574;2022-10-22T08:59:46;15.00;99.90
13598;DHT22;38563;54.258;12.574;2022-10-22T09:02:26;15.00;99.90
13598;DHT22;38563;54.258;12.574;2022-10-22T09:05:03;15.00;99.90
13598;DHT22;38563;54.258;12.574;2022-10-22T09:07:34;15.00;99.90
13598;DHT22;38563;54.258;12.574;2022-10-22T09:10:01;15.00;99.90
13598;DHT22;38563;54.258;12.574;2022-10-22T09:12:28;15.00;99.90
13598;DHT22;38563;54.258;12.574;2022-10-22T09:14:55;15.00;99.90
13598;DHT22;38563;54.258;12.574;2022-10-22T09:17:28;15.10;99.90
13598;DHT22;38563;54.258;12.574;2022-10-22T09:20:05;15.20;99.90
13598;DHT22;38563;54.258;12.574;2022-10-22T09:22:39;15.20;99.90
13598;DHT22;38563;54.258;12.574;2022-10-22T09:25:17;15.20;99.90
13598;DHT22;38563;54.258;12.574;2022-10-22T09:27:45;15.20;99.90
13598;DHT22;38563;54.258;12.574;2022-10-22T09:30:15;15.30;99.90
13598;DHT22;38563;54.258;12.574;2022-10-22T09:32:42;15.30;99.90
13598;DHT22;38563;54.258;12.574;2022-10-22T09:35:11;15.40;99.90
13598;DHT22;38563;54.258;12.574;2022-10-22T09:37:47;15.40;99.90
13598;DHT22;38563;54.258;12.574;2022-10-22T09:40:15;15.50;99.90
13598;DHT22;38563;54.258;12.574;2022-10-22T09:42:43;15.50;99.90
13598;DHT22;38563;54.258;12.574;2022-10-22T09:45:16;15.60;99.90
13598;DHT22;38563;54.258;12.574;2022-10-22T09:47:44;15.60;99.90
13598;DHT22;38563;54.258;12.574;2022-10-22T09:50:24;15.60;99.90
13598;DHT22;38563;54.258;12.574;2022-10-22T09:53:00;15.60;99.90
13598;DHT22;38563;54.258;12.574;2022-10-22T09:55:27;15.70;99.90
13598;DHT22;38563;54.258;12.574;2022-10-22T09:57:55;15.80;99.90
13598;DHT22;38563;54.258;12.574;2022-10-22T10:00:22;15.80;99.90
13598;DHT22;38563;54.258;12.574;2022-10-22T10:02:53;15.80;99.90
13598;DHT22;38563;54.258;12.574;2022-10-22T10:05:28;15.80;99.90
13598;DHT22;38563;54.258;12.574;2022-10-22T10:07:55;15.90;99.90
13598;DHT22;38563;54.258;12.574;2022-10-22T10:10:30;16.00;99.90
13598;DHT22;38563;54.258;12.574;2022-10-22T10:13:05;16.10;99.90
13598;DHT22;38563;54.258;12.574;2022-10-22T10:15:38;16.10;99.90
13598;DHT22;38563;54.258;12.574;2022-10-22T10:18:20;16.20;99.90
13598;DHT22;38563;54.258;12.574;2022-10-22T10:20:55;16.30;99.90
13598;DHT22;38563;54.258;12.574;2022-10-22T10:23:30;16.40;99.90
13598;DHT22;38563;54.258;12.574;2022-10-22T10:26:03;16.50;99.90
13598;DHT22;38563;54.258;12.574;2022-10-22T10:28:44;16.50;99.90
13598;DHT22;38563;54.258;12.574;2022-10-22T10:31:19;16.50;99.90
13598;DHT22;38563;54.258;12.574;2022-10-22T10:33:55;16.60;99.90
13598;DHT22;38563;54.258;12.574;2022-10-22T10:36:32;16.60;99.90
13598;DHT22;38563;54.258;12.574;2022-10-22T10:39:05;16.70;99.90
13598;DHT22;38563;54.258;12.574;2022-10-22T10:41:41;16.80;99.90
13598;DHT22;38563;54.258;12.574;2022-10-22T10:44:26;16.90;99.90
13598;DHT22;38563;54.258;12.574;2022-10-22T10:46:58;16.90;99.90
13598;DHT22;38563;54.258;12.574;2022-10-22T10:49:31;17.00;99.90
13598;DHT22;38563;54.258;12.574;2022-10-22T10:52:08;17.00;99.90
13598;DHT22;38563;54.258;12.574;2022-10-22T10:54:44;17.20;99.90
13598;DHT22;38563;54.258;12.574;2022-10-22T10:57:18;17.30;99.90
13598;DHT22;38563;54.258;12.574;2022-10-22T11:00:01;17.40;99.90
13598;DHT22;38563;54.258;12.574;2022-10-22T11:05:35;17.60;99.90
13598;DHT22;38563;54.258;12.574;2022-10-22T11:08:09;17.70;99.90
13598;DHT22;38563;54.258;12.574;2022-10-22T11:10:39;17.70;99.90
13598;DHT22;38563;54.258;12.574;2022-10-22T11:13:13;17.70;99.90
13598;DHT22;38563;54.258;12.574;2022-10-22T11:15:45;17.80;99.90
13598;DHT22;38563;54.258;12.574;2022-10-22T11:18:19;18.00;99.90
13598;DHT22;38563;54.258;12.574;2022-10-22T11:20:52;18.10;99.90
13598;DHT22;38563;54.258;12.574;2022-10-22T11:23:27;18.20;99.90
13598;DHT22;38563;54.258;12.574;2022-10-22T11:25:55;18.10;99.90
13598;DHT22;38563;54.258;12.574;2022-10-22T11:28:25;18.20;99.90
13598;DHT22;38563;54.258;12.574;2022-10-22T11:30:59;18.20;99.90
13598;DHT22;38563;54.258;12.574;2022-10-22T11:33:37;18.20;99.90
13598;DHT22;38563;54.258;12.574;2022-10-22T11:36:07;18.10;99.90
13598;DHT22;38563;54.258;12.574;2022-10-22T11:38:37;18.20;99.90
13598;DHT22;38563;54.258;12.574;2022-10-22T11:41:07;18.30;99.90
13598;DHT22;38563;54.258;12.574;2022-10-22T11:43:57;18.40;99.90
13598;DHT22;38563;54.258;12.574;2022-10-22T11:46:28;18.40;99.90
13598;DHT22;38563;54.258;12.574;2022-10-22T11:49:04;18.40;99.90
13598;DHT22;38563;54.258;12.574;2022-10-22T11:51:42;18.50;99.90
13598;DHT22;38563;54.258;12.574;2022-10-22T11:57:18;18.50;99.90
13598;DHT22;38563;54.258;12.574;2022-10-22T11:59:51;18.50;99.90
13598;DHT22;38563;54.258;12.574;2022-10-22T12:02:41;18.50;99.90
13598;DHT22;38563;54.258;12.574;2022-10-22T12:05:29;18.30;99.90
13598;DHT22;38563;54.258;12.574;2022-10-22T12:08:01;18.30;99.90
13598;DHT22;38563;54.258;12.574;2022-10-22T12:10:34;18.30;99.90
13598;DHT22;38563;54.258;12.574;2022-10-22T12:13:10;18.40;99.90
13598;DHT22;38563;54.258;12.574;2022-10-22T12:15:46;18.40;99.90
13598;DHT22;38563;54.258;12.574;2022-10-22T12:18:14;18.50;99.90
13598;DHT22;38563;54.258;12.574;2022-10-22T12:20:40;18.50;99.90
13598;DHT22;38563;54.258;12.574;2022-10-22T12:23:09;18.60;99.90
13598;DHT22;38563;54.258;12.574;2022-10-22T12:25:36;18.60;99.90
13598;DHT22;38563;54.258;12.574;2022-10-22T12:28:09;18.60;99.90
13598;DHT22;38563;54.258;12.574;2022-10-22T12:30:37;18.70;99.90
13598;DHT22;38563;54.258;12.574;2022-10-22T12:33:05;18.70;99.90
13598;DHT22;38563;54.258;12.574;2022-10-22T12:35:34;18.80;99.90
13598;DHT22;38563;54.258;12.574;2022-10-22T12:38:12;18.90;99.90
13598;DHT22;38563;54.258;12.574;2022-10-22T12:40:40;18.90;99.90
13598;DHT22;38563;54.258;12.574;2022-10-22T12:43:11;18.80;99.90
13598;DHT22;38563;54.258;12.574;2022-10-22T12:45:38;18.70;99.90
13598;DHT22;38563;54.258;12.574;2022-10-22T12:48:12;18.70;99.90
13598;DHT22;38563;54.258;12.574;2022-10-22T12:50:41;18.80;99.90
13598;DHT22;38563;54.258;12.574;2022-10-22T12:53:14;18.90;99.90
13598;DHT22;38563;54.258;12.574;2022-10-22T12:55:41;19.00;99.90
13598;DHT22;38563;54.258;12.574;2022-10-22T12:58:16;19.10;99.90
13598;DHT22;38563;54.258;12.574;2022-10-22T13:00:45;19.00;99.90
13598;DHT22;38563;54.258;12.574;2022-10-22T13:03:24;18.90;99.90
13598;DHT22;38563;54.258;12.574;2022-10-22T13:05:51;19.00;99.90
13598;DHT22;38563;54.258;12.574;2022-10-22T13:08:21;19.20;99.90
13598;DHT22;38563;54.258;12.574;2022-10-22T13:10:49;19.10;99.90
13598;DHT22;38563;54.258;12.574;2022-10-22T13:13:31;19.00;99.90
13598;DHT22;38563;54.258;12.574;2022-10-22T13:16:18;19.00;99.90
13598;DHT22;38563;54.258;12.574;2022-10-22T13:18:46;19.10;99.90
13598;DHT22;38563;54.258;12.574;2022-10-22T13:21:31;19.10;99.90
13598;DHT22;38563;54.258;12.574;2022-10-22T13:23:59;19.00;99.90
13598;DHT22;38563;54.258;12.574;2022-10-22T13:26:31;18.90;99.90
13598;DHT22;38563;54.258;12.574;2022-10-22T13:29:02;18.80;99.90
13598;DHT22;38563;54.258;12.574;2022-10-22T13:31:30;18.60;99.90
13598;DHT22;38563;54.258;12.574;2022-10-22T13:34:00;18.50;99.90
13598;DHT22;38563;54.258;12.574;2022-10-22T13:36:28;18.40;99.90
13598;DHT22;38563;54.258;12.574;2022-10-22T13:38:55;18.30;99.90
13598;DHT22;38563;54.258;12.574;2022-10-22T13:41:23;18.10;99.90
13598;DHT22;38563;54.258;12.574;2022-10-22T13:43:51;18.00;99.90
13598;DHT22;38563;54.258;12.574;2022-10-22T13:46:19;17.80;99.90
13598;DHT22;38563;54.258;12.574;2022-10-22T13:48:47;17.60;99.90
13598;DHT22;38563;54.258;12.574;2022-10-22T13:51:16;17.50;99.90
13598;DHT22;38563;54.258;12.574;2022-10-22T13:53:44;17.30;99.90
13598;DHT22;38563;54.258;12.574;2022-10-22T13:56:13;17.10;99.90
13598;DHT22;38563;54.258;12.574;2022-10-22T13:58:41;17.10;99.90
13598;DHT22;38563;54.258;12.574;2022-10-22T14:01:14;16.90;99.90
13598;DHT22;38563;54.258;12.574;2022-10-22T14:03:43;16.80;99.90
13598;DHT22;38563;54.258;12.574;2022-10-22T14:06:12;16.70;99.90
13598;DHT22;38563;54.258;12.574;2022-10-22T14:08:39;16.50;99.90
13598;DHT22;38563;54.258;12.574;2022-10-22T14:11:07;16.30;99.90
13598;DHT22;38563;54.258;12.574;2022-10-22T14:13:34;16.10;99.90
13598;DHT22;38563;54.258;12.574;2022-10-22T14:16:02;15.90;99.90
13598;DHT22;38563;54.258;12.574;2022-10-22T14:18:30;15.70;99.90
13598;DHT22;38563;54.258;12.574;2022-10-22T14:21:00;15.50;99.90
13598;DHT22;38563;54.258;12.574;2022-10-22T14:23:30;15.30;99.90
13598;DHT22;38563;54.258;12.574;2022-10-22T14:25:57;15.10;99.90
13598;DHT22;38563;54.258;12.574;2022-10-22T14:28:24;14.90;99.90
13598;DHT22;38563;54.258;12.574;2022-10-22T14:30:51;14.80;99.90
13598;DHT22;38563;54.258;12.574;2022-10-22T14:33:21;14.80;99.90
13598;DHT22;38563;54.258;12.574;2022-10-22T14:35:48;14.70;99.90
13598;DHT22;38563;54.258;12.574;2022-10-22T14:38:17;14.60;99.90
13598;DHT22;38563;54.258;12.574;2022-10-22T14:40:44;14.50;99.90
13598;DHT22;38563;54.258;12.574;2022-10-22T14:43:15;14.40;99.90
13598;DHT22;38563;54.258;12.574;2022-10-22T14:45:43;14.30;99.90
13598;DHT22;38563;54.258;12.574;2022-10-22T14:48:10;14.30;99.90
13598;DHT22;38563;54.258;12.574;2022-10-22T14:50:37;14.30;99.90
13598;DHT22;38563;54.258;12.574;2022-10-22T14:53:03;14.40;99.90
13598;DHT22;38563;54.258;12.574;2022-10-22T14:55:31;14.40;99.90
13598;DHT22;38563;54.258;12.574;2022-10-22T14:57:58;14.50;99.90
13598;DHT22;38563;54.258;12.574;2022-10-22T15:00:25;14.50;99.90
13598;DHT22;38563;54.258;12.574;2022-10-22T15:02:52;14.50;99.90
13598;DHT22;38563;54.258;12.574;2022-10-22T15:05:20;14.50;99.90
13598;DHT22;38563;54.258;12.574;2022-10-22T15:07:47;14.50;99.90
13598;DHT22;38563;54.258;12.574;2022-10-22T15:10:14;14.50;99.90
13598;DHT22;38563;54.258;12.574;2022-10-22T15:12:42;14.50;99.90
13598;DHT22;38563;54.258;12.574;2022-10-22T15:15:09;14.50;99.90
13598;DHT22;38563;54.258;12.574;2022-10-22T15:17:36;14.50;99.90
13598;DHT22;38563;54.258;12.574;2022-10-22T15:20:04;14.50;99.90
13598;DHT22;38563;54.258;12.574;2022-10-22T15:22:31;14.40;99.90
13598;DHT22;38563;54.258;12.574;2022-10-22T15:24:59;14.40;99.90
13598;DHT22;38563;54.258;12.574;2022-10-22T15:27:26;14.40;99.90
13598;DHT22;38563;54.258;12.574;2022-10-22T15:29:54;14.40;99.90
13598;DHT22;38563;54.258;12.574;2022-10-22T15:32:23;14.40;99.90
13598;DHT22;38563;54.258;12.574;2022-10-22T15:34:51;14.30;99.90
13598;DHT22;38563;54.258;12.574;2022-10-22T15:37:18;14.30;99.90